sensor_id;sensor_type;location;lat;lon;timestamp;pressure;altitude;pressure_sealevel;temperature;humidity
19457;BME280;9867;48.094;11.478;2023-08-08T00:00:35;95457.00;;;17.20;100.00
19457;BME280;9867;48.094;11.478;2023-08-08T00:03:03;95466.28;;;17.04;100.00
19457;BME280;9867;48.094;11.478;2023-08-08T00:05:33;95458.41;;;16.99;100.00
19457;BME280;9867;48.094;11.478;2023-08-08T00:08:01;95460.44;;;16.97;100.00
19457;BME280;9867;48.094;11.478;2023-08-08T00:10:29;95452.66;;;16.97;100.00
19457;BME280;9867;48.094;11.478;2023-08-08T00:12:57;95449.22;;;17.20;100.00
19457;BME280;9867;48.094;11.478;2023-08-08T00:15:25;95454.25;;;17.27;100.00
19457;BME280;9867;48.094;11.478;2023-08-08T00:17:53;95449.88;;;17.27;100.00
19457;BME280;9867;48.094;11.478;2023-08-08T00:20:21;95448.34;;;17.15;100.00
19457;BME280;9867;48.094;11.478;2023-08-08T00:22:50;95445.41;;;17.11;100.00
19457;BME280;9867;48.094;11.478;2023-08-08T00:25:18;95447.44;;;17.21;100.00
19457;BME280;9867;48.094;11.478;2023-08-08T00:27:46;95446.88;;;17.07;100.00
19457;BME280;9867;48.094;11.478;2023-08-08T00:30:15;95440.22;;;17.11;100.00
19457;BME280;9867;48.094;11.478;2023-08-08T00:32:43;95440.72;;;16.85;100.00
19457;BME280;9867;48.094;11.478;2023-08-08T00:35:11;95438.91;;;16.85;100.00
19457;BME280;9867;48.094;11.478;2023-08-08T00:37:39;95430.13;;;16.98;100.00
19457;BME280;9867;48.094;11.478;2023-08-08T00:40:09;95437.19;;;17.14;100.00
19457;BME280;9867;48.094;11.478;2023-08-08T00:42:37;95435.28;;;17.10;100.00
19457;BME280;9867;48.094;11.478;2023-08-08T00:45:06;95435.09;;;16.88;100.00
19457;BME280;9867;48.094;11.478;2023-08-08T00:47:34;95426.22;;;16.72;100.00
19457;BME280;9867;48.094;11.478;2023-08-08T00:50:02;95430.28;;;16.68;100.00
19457;BME280;9867;48.094;11.478;2023-08-08T00:52:32;95442.75;;;16.83;100.00
19457;BME280;9867;48.094;11.478;2023-08-08T00:55:00;95433.97;;;16.95;100.00
19457;BME280;9867;48.094;11.478;2023-08-08T00:57:29;95425.00;;;17.03;100.00
19457;BME280;9867;48.094;11.478;2023-08-08T00:59:57;95427.50;;;17.10;100.00
19457;BME280;9867;48.094;11.478;2023-08-08T01:02:25;95433.47;;;17.10;100.00
19457;BME280;9867;48.094;11.478;2023-08-08T01:04:54;95424.78;;;17.45;100.00
19457;BME280;9867;48.094;11.478;2023-08-08T01:07:27;95430.69;;;17.28;100.00
19457;BME280;9867;48.094;11.478;2023-08-08T01:10:00;95428.06;;;17.12;100.00
19457;BME280;9867;48.094;11.478;2023-08-08T01:12:39;95429.75;;;17.06;100.00
19457;BME280;9867;48.094;11.478;2023-08-08T01:15:10;95429.09;;;16.99;100.00
19457;BME280;9867;48.094;11.478;2023-08-08T01:17:39;95429.56;;;17.24;100.00
19457;BME280;9867;48.094;11.478;2023-08-08T01:20:10;95422.84;;;17.23;100.00
19457;BME280;9867;48.094;11.478;2023-08-08T01:22:47;95419.25;;;17.13;100.00
19457;BME280;9867;48.094;11.478;2023-08-08T01:25:17;95424.22;;;17.14;100.00
19457;BME280;9867;48.094;11.478;2023-08-08T01:27:46;95419.47;;;17.11;100.00
19457;BME280;9867;48.094;11.478;2023-08-08T01:30:14;95417.78;;;17.17;100.00
19457;BME280;9867;48.094;11.478;2023-08-08T01:32:43;95413.16;;;17.19;100.00
19457;BME280;9867;48.094;11.478;2023-08-08T01:35:11;95410.59;;;17.07;100.00
19457;BME280;9867;48.094;11.478;2023-08-08T01:37:42;95413.31;;;17.00;100.00
19457;BME280;9867;48.094;11.478;2023-08-08T01:40:13;95413.69;;;16.81;100.00
19457;BME280;9867;48.094;11.478;2023-08-08T01:42:46;95399.72;;;16.82;100.00
19457;BME280;9867;48.094;11.478;2023-08-08T01:45:15;95405.00;;;16.98;100.00
19457;BME280;9867;48.094;11.478;2023-08-08T01:47:49;95409.16;;;16.88;100.00
19457;BME280;9867;48.094;11.478;2023-08-08T01:50:17;95402.75;;;16.79;100.00
19457;BME280;9867;48.094;11.478;2023-08-08T01:52:45;95397.22;;;16.87;100.00
19457;BME280;9867;48.094;11.478;2023-08-08T01:55:13;95404.81;;;16.77;100.00
19457;BME280;9867;48.094;11.478;2023-08-08T01:57:42;95400.19;;;16.67;100.00
19457;BME280;9867;48.094;11.478;2023-08-08T02:00:12;95406.25;;;16.84;100.00
19457;BME280;9867;48.094;11.478;2023-08-08T02:02:43;95405.78;;;16.87;100.00
19457;BME280;9867;48.094;11.478;2023-08-08T02:05:11;95399.69;;;16.93;100.00
19457;BME280;9867;48.094;11.478;2023-08-08T02:07:39;95396.78;;;16.90;100.00
19457;BME280;9867;48.094;11.478;2023-08-08T02:10:07;95394.88;;;16.85;100.00
19457;BME280;9867;48.094;11.478;2023-08-08T02:12:36;95394.06;;;16.85;100.00
19457;BME280;9867;48.094;11.478;2023-08-08T02:15:05;95388.56;;;16.81;100.00
19457;BME280;9867;48.094;11.478;2023-08-08T02:17:37;95386.53;;;16.83;100.00
19457;BME280;9867;48.094;11.478;2023-08-08T02:20:06;95384.84;;;16.77;100.00
19457;BME280;9867;48.094;11.478;2023-08-08T02:22:34;95379.34;;;16.74;100.00
19457;BME280;9867;48.094;11.478;2023-08-08T02:25:03;95374.63;;;16.70;100.00
19457;BME280;9867;48.094;11.478;2023-08-08T02:27:31;95380.78;;;16.58;100.00
19457;BME280;9867;48.094;11.478;2023-08-08T02:29:59;95383.03;;;16.78;100.00
19457;BME280;9867;48.094;11.478;2023-08-08T02:32:27;95380.78;;;16.81;100.00
19457;BME280;9867;48.094;11.478;2023-08-08T02:34:56;95377.63;;;16.79;100.00
19457;BME280;9867;48.094;11.478;2023-08-08T02:37:24;95377.19;;;16.82;100.00
19457;BME280;9867;48.094;11.478;2023-08-08T02:39:52;95379.53;;;16.84;100.00
19457;BME280;9867;48.094;11.478;2023-08-08T02:42:20;95376.84;;;16.90;100.00
19457;BME280;9867;48.094;11.478;2023-08-08T02:44:48;95376.72;;;16.85;100.00
19457;BME280;9867;48.094;11.478;2023-08-08T02:47:16;95377.50;;;16.97;100.00
19457;BME280;9867;48.094;11.478;2023-08-08T02:49:44;95378.84;;;17.00;100.00
19457;BME280;9867;48.094;11.478;2023-08-08T02:52:15;95381.78;;;16.80;100.00
19457;BME280;9867;48.094;11.478;2023-08-08T02:54:43;95383.16;;;16.83;100.00
19457;BME280;9867;48.094;11.478;2023-08-08T02:57:11;95382.25;;;16.89;100.00
19457;BME280;9867;48.094;11.478;2023-08-08T02:59:40;95382.25;;;16.89;100.00
19457;BME280;9867;48.094;11.478;2023-08-08T03:02:08;95389.13;;;16.83;100.00
19457;BME280;9867;48.094;11.478;2023-08-08T03:04:38;95382.69;;;16.86;100.00
19457;BME280;9867;48.094;11.478;2023-08-08T03:07:07;95387.53;;;16.82;100.00
19457;BME280;9867;48.094;11.478;2023-08-08T03:09:38;95385.53;;;16.61;100.00
19457;BME280;9867;48.094;11.478;2023-08-08T03:12:08;95378.75;;;16.60;100.00
19457;BME280;9867;48.094;11.478;2023-08-08T03:14:37;95380.22;;;16.91;100.00
19457;BME280;9867;48.094;11.478;2023-08-08T03:17:05;95376.16;;;17.23;100.00
19457;BME280;9867;48.094;11.478;2023-08-08T03:19:33;95377.47;;;17.26;100.00
19457;BME280;9867;48.094;11.478;2023-08-08T03:22:03;95372.47;;;17.19;100.00
19457;BME280;9867;48.094;11.478;2023-08-08T03:24:34;95376.97;;;17.12;100.00
19457;BME280;9867;48.094;11.478;2023-08-08T03:27:04;95372.88;;;16.99;100.00
19457;BME280;9867;48.094;11.478;2023-08-08T03:29:33;95376.75;;;17.14;100.00
19457;BME280;9867;48.094;11.478;2023-08-08T03:32:01;95368.78;;;17.03;100.00
19457;BME280;9867;48.094;11.478;2023-08-08T03:34:31;95377.75;;;16.84;100.00
19457;BME280;9867;48.094;11.478;2023-08-08T03:37:01;95383.16;;;16.83;100.00
19457;BME280;9867;48.094;11.478;2023-08-08T03:39:29;95380.25;;;16.67;100.00
19457;BME280;9867;48.094;11.478;2023-08-08T03:41:57;95377.06;;;16.89;100.00
19457;BME280;9867;48.094;11.478;2023-08-08T03:44:27;95376.50;;;16.87;100.00
19457;BME280;9867;48.094;11.478;2023-08-08T03:46:55;95384.03;;;16.88;100.00
19457;BME280;9867;48.094;11.478;2023-08-08T03:49:43;95371.66;;;16.79;100.00
19457;BME280;9867;48.094;11.478;2023-08-08T03:52:12;95365.63;;;17.01;100.00
19457;BME280;9867;48.094;11.478;2023-08-08T03:54:40;95358.00;;;16.95;100.00
19457;BME280;9867;48.094;11.478;2023-08-08T03:57:08;95363.59;;;17.03;100.00
19457;BME280;9867;48.094;11.478;2023-08-08T03:59:38;95363.44;;;17.22;100.00
19457;BME280;9867;48.094;11.478;2023-08-08T04:02:06;95370.81;;;17.30;100.00
19457;BME280;9867;48.094;11.478;2023-08-08T04:04:33;95381.16;;;17.42;100.00
19457;BME280;9867;48.094;11.478;2023-08-08T04:07:02;95371.38;;;17.03;100.00
19457;BME280;9867;48.094;11.478;2023-08-08T04:09:30;95376.41;;;17.22;100.00
19457;BME280;9867;48.094;11.478;2023-08-08T04:11:58;95373.97;;;17.32;100.00
19457;BME280;9867;48.094;11.478;2023-08-08T04:14:27;95374.06;;;17.37;100.00
19457;BME280;9867;48.094;11.478;2023-08-08T04:16:56;95375.31;;;17.34;100.00
19457;BME280;9867;48.094;11.478;2023-08-08T04:19:24;95381.81;;;17.20;100.00
19457;BME280;9867;48.094;11.478;2023-08-08T04:21:52;95379.56;;;17.24;100.00
19457;BME280;9867;48.094;11.478;2023-08-08T04:24:20;95380.72;;;17.33;100.00
19457;BME280;9867;48.094;11.478;2023-08-08T04:26:48;95382.28;;;17.17;100.00
19457;BME280;9867;48.094;11.478;2023-08-08T04:29:16;95384.41;;;17.20;100.00
19457;BME280;9867;48.094;11.478;2023-08-08T04:31:44;95393.03;;;17.26;100.00
19457;BME280;9867;48.094;11.478;2023-08-08T04:34:13;95393.19;;;17.19;100.00
19457;BME280;9867;48.094;11.478;2023-08-08T04:36:41;95391.84;;;17.45;100.00
19457;BME280;9867;48.094;11.478;2023-08-08T04:39:09;95383.50;;;17.71;100.00
19457;BME280;9867;48.094;11.478;2023-08-08T04:41:37;95383.84;;;17.47;100.00
19457;BME280;9867;48.094;11.478;2023-08-08T04:44:05;95394.38;;;17.68;100.00
19457;BME280;9867;48.094;11.478;2023-08-08T04:46:33;95395.28;;;17.62;100.00
19457;BME280;9867;48.094;11.478;2023-08-08T04:49:01;95386.88;;;17.72;100.00
19457;BME280;9867;48.094;11.478;2023-08-08T04:51:31;95384.66;;;17.64;100.00
19457;BME280;9867;48.094;11.478;2023-08-08T04:53:59;95389.97;;;17.57;100.00
19457;BME280;9867;48.094;11.478;2023-08-08T04:56:27;95381.19;;;17.58;100.00
19457;BME280;9867;48.094;11.478;2023-08-08T04:58:56;95387.16;;;17.59;100.00
19457;BME280;9867;48.094;11.478;2023-08-08T05:01:24;95393.59;;;17.68;100.00
19457;BME280;9867;48.094;11.478;2023-08-08T05:03:53;95398.03;;;17.72;100.00
19457;BME280;9867;48.094;11.478;2023-08-08T05:06:22;95387.75;;;17.78;100.00
19457;BME280;9867;48.094;11.478;2023-08-08T05:08:52;95382.88;;;17.81;100.00
19457;BME280;9867;48.094;11.478;2023-08-08T05:11:20;95400.38;;;17.57;100.00
19457;BME280;9867;48.094;11.478;2023-08-08T05:13:49;95390.13;;;17.79;100.00
19457;BME280;9867;48.094;11.478;2023-08-08T05:16:17;95383.75;;;17.70;100.00
19457;BME280;9867;48.094;11.478;2023-08-08T05:18:46;95392.56;;;17.86;100.00
19457;BME280;9867;48.094;11.478;2023-08-08T05:21:14;95395.09;;;18.14;100.00
19457;BME280;9867;48.094;11.478;2023-08-08T05:23:42;95394.78;;;18.11;100.00
19457;BME280;9867;48.094;11.478;2023-08-08T05:26:11;95397.38;;;18.11;100.00
19457;BME280;9867;48.094;11.478;2023-08-08T05:28:39;95403.34;;;18.28;100.00
19457;BME280;9867;48.094;11.478;2023-08-08T05:31:07;95391.91;;;18.46;100.00
19457;BME280;9867;48.094;11.478;2023-08-08T05:33:36;95392.94;;;18.61;100.00
19457;BME280;9867;48.094;11.478;2023-08-08T05:36:04;95387.41;;;18.58;100.00
19457;BME280;9867;48.094;11.478;2023-08-08T05:38:32;95385.66;;;18.47;100.00
19457;BME280;9867;48.094;11.478;2023-08-08T05:41:00;95389.84;;;18.48;100.00
19457;BME280;9867;48.094;11.478;2023-08-08T05:43:29;95395.28;;;18.46;100.00
19457;BME280;9867;48.094;11.478;2023-08-08T05:45:57;95386.94;;;18.44;100.00
19457;BME280;9867;48.094;11.478;2023-08-08T05:48:25;95387.59;;;18.34;100.00
19457;BME280;9867;48.094;11.478;2023-08-08T05:50:53;95388.50;;;17.90;100.00
19457;BME280;9867;48.094;11.478;2023-08-08T05:53:25;95379.81;;;17.67;100.00
19457;BME280;9867;48.094;11.478;2023-08-08T05:55:53;95386.50;;;17.97;100.00
19457;BME280;9867;48.094;11.478;2023-08-08T05:58:21;95393.53;;;18.13;100.00
19457;BME280;9867;48.094;11.478;2023-08-08T06:00:51;95378.41;;;17.77;100.00
19457;BME280;9867;48.094;11.478;2023-08-08T06:03:19;95391.47;;;17.82;100.00
19457;BME280;9867;48.094;11.478;2023-08-08T06:05:48;95390.22;;;17.84;100.00
19457;BME280;9867;48.094;11.478;2023-08-08T06:08:16;95391.56;;;17.87;100.00
19457;BME280;9867;48.094;11.478;2023-08-08T06:10:44;95390.38;;;17.94;100.00
19457;BME280;9867;48.094;11.478;2023-08-08T06:13:12;95399.31;;;17.70;100.00
19457;BME280;9867;48.094;11.478;2023-08-08T06:15:40;95395.72;;;17.88;100.00
19457;BME280;9867;48.094;11.478;2023-08-08T06:18:09;95392.88;;;18.23;100.00
19457;BME280;9867;48.094;11.478;2023-08-08T06:20:37;95385.72;;;17.96;100.00
19457;BME280;9867;48.094;11.478;2023-08-08T06:23:05;95394.44;;;18.40;100.00
19457;BME280;9867;48.094;11.478;2023-08-08T06:25:33;95392.44;;;18.48;100.00
19457;BME280;9867;48.094;11.478;2023-08-08T06:28:01;95378.63;;;18.42;100.00
19457;BME280;9867;48.094;11.478;2023-08-08T06:30:29;95390.22;;;18.56;100.00
19457;BME280;9867;48.094;11.478;2023-08-08T06:32:57;95389.56;;;18.61;100.00
19457;BME280;9867;48.094;11.478;2023-08-08T06:35:27;95387.78;;;18.66;100.00
19457;BME280;9867;48.094;11.478;2023-08-08T06:37:55;95382.06;;;19.08;98.86
19457;BME280;9867;48.094;11.478;2023-08-08T06:40:23;95376.84;;;18.48;100.00
19457;BME280;9867;48.094;11.478;2023-08-08T06:42:51;95382.88;;;19.14;97.38
19457;BME280;9867;48.094;11.478;2023-08-08T06:45:19;95382.66;;;19.15;96.07
19457;BME280;9867;48.094;11.478;2023-08-08T06:47:47;95388.47;;;19.00;97.87
19457;BME280;9867;48.094;11.478;2023-08-08T06:50:16;95384.06;;;19.50;94.27
19457;BME280;9867;48.094;11.478;2023-08-08T06:52:48;95385.22;;;19.59;91.24
19457;BME280;9867;48.094;11.478;2023-08-08T06:55:16;95378.56;;;19.46;93.81
19457;BME280;9867;48.094;11.478;2023-08-08T06:57:44;95388.13;;;19.40;95.21
19457;BME280;9867;48.094;11.478;2023-08-08T07:00:12;95384.66;;;19.30;97.71
19457;BME280;9867;48.094;11.478;2023-08-08T07:02:42;95390.38;;;19.54;92.78
19457;BME280;9867;48.094;11.478;2023-08-08T07:05:10;95385.09;;;19.75;92.50
19457;BME280;9867;48.094;11.478;2023-08-08T07:07:38;95385.97;;;19.86;91.82
19457;BME280;9867;48.094;11.478;2023-08-08T07:10:08;95380.53;;;19.61;92.67
19457;BME280;9867;48.094;11.478;2023-08-08T07:12:36;95376.56;;;19.53;94.52
19457;BME280;9867;48.094;11.478;2023-08-08T07:15:07;95367.72;;;19.81;94.53
19457;BME280;9867;48.094;11.478;2023-08-08T07:17:36;95367.47;;;19.88;91.37
19457;BME280;9867;48.094;11.478;2023-08-08T07:20:05;95370.38;;;19.91;88.89
19457;BME280;9867;48.094;11.478;2023-08-08T07:22:36;95374.34;;;19.99;87.29
19457;BME280;9867;48.094;11.478;2023-08-08T07:25:05;95372.69;;;19.88;88.68
19457;BME280;9867;48.094;11.478;2023-08-08T07:27:35;95380.22;;;20.16;87.46
19457;BME280;9867;48.094;11.478;2023-08-08T07:30:04;95367.78;;;20.28;85.71
19457;BME280;9867;48.094;11.478;2023-08-08T07:32:34;95380.66;;;20.40;85.37
19457;BME280;9867;48.094;11.478;2023-08-08T07:35:02;95379.91;;;20.07;82.18
19457;BME280;9867;48.094;11.478;2023-08-08T07:37:32;95385.59;;;20.04;80.30
19457;BME280;9867;48.094;11.478;2023-08-08T07:40:00;95377.41;;;19.59;81.23
19457;BME280;9867;48.094;11.478;2023-08-08T07:42:28;95367.56;;;19.98;80.08
19457;BME280;9867;48.094;11.478;2023-08-08T07:44:58;95366.59;;;20.41;76.76
19457;BME280;9867;48.094;11.478;2023-08-08T07:47:25;95372.16;;;20.55;73.82
19457;BME280;9867;48.094;11.478;2023-08-08T07:49:54;95372.44;;;20.63;75.51
19457;BME280;9867;48.094;11.478;2023-08-08T07:52:22;95372.44;;;19.89;73.59
19457;BME280;9867;48.094;11.478;2023-08-08T07:54:50;95375.00;;;19.84;73.02
19457;BME280;9867;48.094;11.478;2023-08-08T07:57:18;95355.22;;;20.20;69.92
19457;BME280;9867;48.094;11.478;2023-08-08T07:59:46;95362.84;;;20.79;74.42
19457;BME280;9867;48.094;11.478;2023-08-08T08:02:15;95353.47;;;20.73;68.10
19457;BME280;9867;48.094;11.478;2023-08-08T08:04:43;95349.06;;;20.84;69.81
19457;BME280;9867;48.094;11.478;2023-08-08T08:07:11;95349.50;;;20.65;68.54
19457;BME280;9867;48.094;11.478;2023-08-08T08:09:39;95343.72;;;20.58;66.62
19457;BME280;9867;48.094;11.478;2023-08-08T08:12:09;95334.88;;;20.59;63.09
19457;BME280;9867;48.094;11.478;2023-08-08T08:14:36;95347.72;;;20.71;63.83
19457;BME280;9867;48.094;11.478;2023-08-08T08:17:05;95351.69;;;20.89;63.95
19457;BME280;9867;48.094;11.478;2023-08-08T08:19:34;95342.47;;;20.66;64.04
19457;BME280;9867;48.094;11.478;2023-08-08T08:22:03;95341.66;;;21.33;61.91
19457;BME280;9867;48.094;11.478;2023-08-08T08:24:31;95348.00;;;20.85;62.65
19457;BME280;9867;48.094;11.478;2023-08-08T08:26:59;95331.66;;;20.99;63.78
19457;BME280;9867;48.094;11.478;2023-08-08T08:29:27;95349.50;;;20.65;62.69
19457;BME280;9867;48.094;11.478;2023-08-08T08:31:55;95348.69;;;20.55;62.09
19457;BME280;9867;48.094;11.478;2023-08-08T08:34:24;95345.31;;;20.54;61.59
19457;BME280;9867;48.094;11.478;2023-08-08T08:36:53;95341.50;;;20.87;60.78
19457;BME280;9867;48.094;11.478;2023-08-08T08:39:21;95344.88;;;20.77;59.31
19457;BME280;9867;48.094;11.478;2023-08-08T08:41:54;95341.22;;;20.79;60.81
19457;BME280;9867;48.094;11.478;2023-08-08T08:44:30;95325.50;;;21.46;59.17
19457;BME280;9867;48.094;11.478;2023-08-08T08:46:59;95326.97;;;21.06;58.88
19457;BME280;9867;48.094;11.478;2023-08-08T08:49:30;95322.78;;;21.10;60.94
19457;BME280;9867;48.094;11.478;2023-08-08T08:52:00;95324.97;;;21.59;57.51
19457;BME280;9867;48.094;11.478;2023-08-08T08:54:29;95321.84;;;21.57;56.89
19457;BME280;9867;48.094;11.478;2023-08-08T08:56:57;95318.72;;;21.96;57.54
19457;BME280;9867;48.094;11.478;2023-08-08T08:59:26;95312.41;;;21.97;57.21
19457;BME280;9867;48.094;11.478;2023-08-08T09:01:55;95321.03;;;22.28;53.98
19457;BME280;9867;48.094;11.478;2023-08-08T09:04:25;95318.72;;;22.01;56.70
19457;BME280;9867;48.094;11.478;2023-08-08T09:06:53;95318.97;;;21.94;54.23
19457;BME280;9867;48.094;11.478;2023-08-08T09:09:23;95315.56;;;21.73;52.94
19457;BME280;9867;48.094;11.478;2023-08-08T09:11:53;95321.84;;;22.03;52.41
19457;BME280;9867;48.094;11.478;2023-08-08T09:14:22;95315.06;;;21.41;52.32
19457;BME280;9867;48.094;11.478;2023-08-08T09:16:51;95310.91;;;21.65;52.25
19457;BME280;9867;48.094;11.478;2023-08-08T09:19:21;95310.56;;;22.43;52.03
19457;BME280;9867;48.094;11.478;2023-08-08T09:21:50;95316.63;;;22.13;51.07
19457;BME280;9867;48.094;11.478;2023-08-08T09:24:18;95316.19;;;22.70;50.20
19457;BME280;9867;48.094;11.478;2023-08-08T09:26:48;95319.69;;;22.45;51.01
19457;BME280;9867;48.094;11.478;2023-08-08T09:29:16;95315.22;;;22.51;51.33
19457;BME280;9867;48.094;11.478;2023-08-08T09:31:46;95307.81;;;22.78;49.84
19457;BME280;9867;48.094;11.478;2023-08-08T09:34:14;95314.59;;;22.85;48.82
19457;BME280;9867;48.094;11.478;2023-08-08T09:36:42;95317.34;;;22.39;51.51
19457;BME280;9867;48.094;11.478;2023-08-08T09:39:10;95314.22;;;22.42;50.94
19457;BME280;9867;48.094;11.478;2023-08-08T09:41:38;95307.13;;;22.48;52.45
19457;BME280;9867;48.094;11.478;2023-08-08T09:44:08;95287.19;;;23.16;47.82
19457;BME280;9867;48.094;11.478;2023-08-08T09:46:36;95303.78;;;23.40;47.29
19457;BME280;9867;48.094;11.478;2023-08-08T09:49:04;95295.03;;;23.21;46.97
19457;BME280;9867;48.094;11.478;2023-08-08T09:51:33;95293.59;;;23.39;47.16
19457;BME280;9867;48.094;11.478;2023-08-08T09:54:01;95293.78;;;23.13;47.32
19457;BME280;9867;48.094;11.478;2023-08-08T09:56:30;95283.03;;;24.12;47.33
19457;BME280;9867;48.094;11.478;2023-08-08T09:58:59;95289.25;;;24.21;46.56
19457;BME280;9867;48.094;11.478;2023-08-08T10:01:29;95290.88;;;24.65;45.52
19457;BME280;9867;48.094;11.478;2023-08-08T10:03:59;95285.94;;;24.39;45.24
19457;BME280;9867;48.094;11.478;2023-08-08T10:06:27;95279.59;;;24.17;45.89
19457;BME280;9867;48.094;11.478;2023-08-08T10:08:55;95283.44;;;23.32;45.83
19457;BME280;9867;48.094;11.478;2023-08-08T10:11:24;95281.94;;;23.21;47.55
19457;BME280;9867;48.094;11.478;2023-08-08T10:13:53;95280.97;;;23.46;47.33
19457;BME280;9867;48.094;11.478;2023-08-08T10:16:22;95283.22;;;22.69;47.31
19457;BME280;9867;48.094;11.478;2023-08-08T10:18:56;95276.66;;;22.87;47.98
19457;BME280;9867;48.094;11.478;2023-08-08T10:21:26;95277.50;;;23.17;45.58
19457;BME280;9867;48.094;11.478;2023-08-08T10:24:03;95286.53;;;22.95;45.96
19457;BME280;9867;48.094;11.478;2023-08-08T10:26:31;95279.06;;;23.62;43.58
19457;BME280;9867;48.094;11.478;2023-08-08T10:29:00;95278.50;;;23.65;44.24
19457;BME280;9867;48.094;11.478;2023-08-08T10:31:34;95281.84;;;23.36;42.93
19457;BME280;9867;48.094;11.478;2023-08-08T10:34:05;95287.19;;;23.60;44.00
19457;BME280;9867;48.094;11.478;2023-08-08T10:36:47;95290.00;;;23.69;43.18
19457;BME280;9867;48.094;11.478;2023-08-08T10:39:18;95277.69;;;23.98;42.57
19457;BME280;9867;48.094;11.478;2023-08-08T10:41:48;95287.47;;;23.88;42.83
19457;BME280;9867;48.094;11.478;2023-08-08T10:44:23;95273.69;;;23.77;42.02
19457;BME280;9867;48.094;11.478;2023-08-08T10:46:53;95287.66;;;23.67;41.58
19457;BME280;9867;48.094;11.478;2023-08-08T10:49:26;95278.81;;;24.16;40.32
19457;BME280;9867;48.094;11.478;2023-08-08T10:52:02;95274.91;;;24.13;40.54
19457;BME280;9867;48.094;11.478;2023-08-08T10:54:30;95311.22;;;23.28;43.15
19457;BME280;9867;48.094;11.478;2023-08-08T10:57:00;95283.84;;;23.50;41.11
19457;BME280;9867;48.094;11.478;2023-08-08T10:59:36;95284.47;;;23.70;41.49
19457;BME280;9867;48.094;11.478;2023-08-08T11:02:04;95282.94;;;23.30;40.32
19457;BME280;9867;48.094;11.478;2023-08-08T11:04:35;95275.84;;;23.70;41.14
19457;BME280;9867;48.094;11.478;2023-08-08T11:07:03;95271.72;;;24.17;40.36
19457;BME280;9867;48.094;11.478;2023-08-08T11:09:31;95275.78;;;23.41;41.73
19457;BME280;9867;48.094;11.478;2023-08-08T11:12:00;95262.16;;;23.78;41.64
19457;BME280;9867;48.094;11.478;2023-08-08T11:14:29;95275.34;;;24.21;39.80
19457;BME280;9867;48.094;11.478;2023-08-08T11:16:57;95309.00;;;23.45;39.99
19457;BME280;9867;48.094;11.478;2023-08-08T11:19:25;95272.16;;;23.37;40.79
19457;BME280;9867;48.094;11.478;2023-08-08T11:21:54;95244.75;;;23.87;39.87
19457;BME280;9867;48.094;11.478;2023-08-08T11:24:22;95250.41;;;24.23;39.83
19457;BME280;9867;48.094;11.478;2023-08-08T11:26:58;95255.47;;;24.43;39.40
19457;BME280;9867;48.094;11.478;2023-08-08T11:29:26;95261.28;;;24.59;38.98
19457;BME280;9867;48.094;11.478;2023-08-08T11:31:57;95260.13;;;24.70;39.41
19457;BME280;9867;48.094;11.478;2023-08-08T11:34:30;95250.50;;;24.42;38.98
19457;BME280;9867;48.094;11.478;2023-08-08T11:37:01;95256.31;;;24.58;38.05
19457;BME280;9867;48.094;11.478;2023-08-08T11:39:29;95251.81;;;24.63;36.46
19457;BME280;9867;48.094;11.478;2023-08-08T11:41:57;95261.22;;;23.93;35.62
19457;BME280;9867;48.094;11.478;2023-08-08T11:44:25;95247.81;;;24.47;37.01
19457;BME280;9867;48.094;11.478;2023-08-08T11:46:54;95251.19;;;24.90;36.10
19457;BME280;9867;48.094;11.478;2023-08-08T11:49:22;95242.34;;;25.05;36.25
19457;BME280;9867;48.094;11.478;2023-08-08T11:51:50;95250.91;;;24.30;36.14
19457;BME280;9867;48.094;11.478;2023-08-08T11:54:26;95229.25;;;24.62;36.38
19457;BME280;9867;48.094;11.478;2023-08-08T11:56:54;95227.47;;;25.00;36.49
19457;BME280;9867;48.094;11.478;2023-08-08T11:59:23;95228.13;;;24.68;36.44
19457;BME280;9867;48.094;11.478;2023-08-08T12:01:51;95234.91;;;25.12;36.59
19457;BME280;9867;48.094;11.478;2023-08-08T12:04:20;95233.91;;;25.27;36.19
19457;BME280;9867;48.094;11.478;2023-08-08T12:06:50;95242.66;;;25.03;36.61
19457;BME280;9867;48.094;11.478;2023-08-08T12:09:18;95224.88;;;24.76;36.35
19457;BME280;9867;48.094;11.478;2023-08-08T12:11:50;95245.28;;;24.61;36.27
19457;BME280;9867;48.094;11.478;2023-08-08T12:14:18;95233.44;;;23.92;37.39
19457;BME280;9867;48.094;11.478;2023-08-08T12:16:46;95235.31;;;24.39;36.00
19457;BME280;9867;48.094;11.478;2023-08-08T12:19:15;95225.44;;;24.55;34.87
19457;BME280;9867;48.094;11.478;2023-08-08T12:21:47;95224.94;;;24.53;35.27
19457;BME280;9867;48.094;11.478;2023-08-08T12:24:15;95216.72;;;24.35;35.35
19457;BME280;9867;48.094;11.478;2023-08-08T12:26:43;95217.44;;;24.41;35.80
19457;BME280;9867;48.094;11.478;2023-08-08T12:29:13;95234.44;;;24.67;35.69
19457;BME280;9867;48.094;11.478;2023-08-08T12:31:41;95225.66;;;24.77;34.42
19457;BME280;9867;48.094;11.478;2023-08-08T12:34:09;95242.78;;;24.51;34.31
19457;BME280;9867;48.094;11.478;2023-08-08T12:36:37;95214.16;;;24.92;34.65
19457;BME280;9867;48.094;11.478;2023-08-08T12:39:06;95231.72;;;25.47;34.69
19457;BME280;9867;48.094;11.478;2023-08-08T12:41:34;95214.22;;;25.57;34.91
19457;BME280;9867;48.094;11.478;2023-08-08T12:44:02;95215.91;;;25.01;34.29
19457;BME280;9867;48.094;11.478;2023-08-08T12:46:31;95213.06;;;25.49;34.98
19457;BME280;9867;48.094;11.478;2023-08-08T12:48:59;95216.94;;;26.25;33.71
19457;BME280;9867;48.094;11.478;2023-08-08T12:51:27;95218.84;;;26.74;33.34
19457;BME280;9867;48.094;11.478;2023-08-08T12:53:55;95217.06;;;26.34;34.31
19457;BME280;9867;48.094;11.478;2023-08-08T12:56:23;95224.94;;;26.20;34.00
19457;BME280;9867;48.094;11.478;2023-08-08T12:58:51;95215.28;;;26.57;33.76
19457;BME280;9867;48.094;11.478;2023-08-08T13:01:19;95220.91;;;25.17;34.00
19457;BME280;9867;48.094;11.478;2023-08-08T13:03:48;95216.06;;;25.56;34.31